createdAt,value
2022-10-09T00:01:37.582Z,15.60
2022-10-09T00:04:06.419Z,14.07
2022-10-09T00:06:36.076Z,15.32
2022-10-09T00:09:05.258Z,14.40
2022-10-09T00:11:38.902Z,14.38
2022-10-09T00:14:07.919Z,14.32
2022-10-09T00:16:36.809Z,15.13
2022-10-09T00:19:05.661Z,14.00
2022-10-09T00:21:35.337Z,13.52
2022-10-09T00:24:05.549Z,13.20
2022-10-09T00:26:34.478Z,13.55
2022-10-09T00:29:03.943Z,12.93
2022-10-09T00:31:33.022Z,11.98
2022-10-09T00:34:01.890Z,12.98
2022-10-09T00:36:30.981Z,11.82
2022-10-09T00:38:59.866Z,12.23
2022-10-09T00:41:31.329Z,11.82
2022-10-09T00:44:04.657Z,12.25
2022-10-09T00:46:42.773Z,11.13
2022-10-09T00:49:29.846Z,11.93
2022-10-09T00:52:08.764Z,11.27
2022-10-09T00:54:43.592Z,11.52
2022-10-09T00:57:12.739Z,11.02
2022-10-09T00:59:43.773Z,11.15
2022-10-09T01:02:17.145Z,10.85
2022-10-09T01:04:46.685Z,10.75
2022-10-09T01:07:25.554Z,10.85
2022-10-09T01:10:22.398Z,11.23
2022-10-09T01:13:23.712Z,10.80
2022-10-09T01:16:01.694Z,11.90
2022-10-09T01:18:52.974Z,11.88
2022-10-09T01:21:44.847Z,13.10
2022-10-09T01:24:34.315Z,12.85
2022-10-09T01:30:21.642Z,14.27
2022-10-09T01:32:53.433Z,12.95
2022-10-09T01:35:32.997Z,13.88
2022-10-09T01:38:04.116Z,15.30
2022-10-09T01:40:33.220Z,16.50
2022-10-09T01:43:02.631Z,16.27
2022-10-09T01:45:39.401Z,16.00
2022-10-09T01:48:12.957Z,16.35
2022-10-09T01:50:46.265Z,16.23
2022-10-09T01:53:20.389Z,17.27
2022-10-09T01:56:19.507Z,17.58
2022-10-09T01:58:58.759Z,18.23
2022-10-09T02:01:31.781Z,18.00
2022-10-09T02:04:04.429Z,18.60
2022-10-09T02:06:34.910Z,19.40
2022-10-09T02:09:08.404Z,18.23
2022-10-09T02:11:40.064Z,30.50
2022-10-09T02:14:09.870Z,19.70
2022-10-09T02:16:41.172Z,20.30
2022-10-09T02:19:35.479Z,20.63
2022-10-09T02:22:27.418Z,20.30
2022-10-09T02:24:59.071Z,18.77
2022-10-09T02:27:29.021Z,20.92
2022-10-09T02:30:00.307Z,21.63
2022-10-09T02:32:42.267Z,23.75
2022-10-09T02:35:16.518Z,22.52
2022-10-09T02:37:46.814Z,19.52
2022-10-09T02:40:16.547Z,22.42
2022-10-09T02:42:50.735Z,19.77
2022-10-09T02:45:19.814Z,30.00
2022-10-09T02:47:58.202Z,21.90
2022-10-09T02:50:27.153Z,24.73
2022-10-09T02:52:56.199Z,25.38
2022-10-09T02:55:25.158Z,19.42
2022-10-09T02:57:54.093Z,19.75
2022-10-09T03:00:23.082Z,20.30
2022-10-09T03:02:52.610Z,24.70
2022-10-09T03:05:21.917Z,20.23
2022-10-09T03:07:52.687Z,20.25
2022-10-09T03:10:23.052Z,20.52
2022-10-09T03:12:52.102Z,21.60
2022-10-09T03:15:21.097Z,20.95
2022-10-09T03:17:49.972Z,21.55
2022-10-09T03:20:18.982Z,22.58
2022-10-09T03:22:48.254Z,24.38
2022-10-09T03:25:19.776Z,23.05
2022-10-09T03:27:48.801Z,24.58
2022-10-09T03:30:27.658Z,25.52
2022-10-09T03:32:56.603Z,24.83
2022-10-09T03:35:25.551Z,26.33
2022-10-09T03:37:54.389Z,27.08
2022-10-09T03:40:33.581Z,24.10
2022-10-09T03:43:02.478Z,25.55
2022-10-09T03:45:42.994Z,27.08
2022-10-09T03:48:16.801Z,25.83
2022-10-09T03:50:55.663Z,25.90
2022-10-09T03:53:24.632Z,25.88
2022-10-09T03:55:53.506Z,25.88
2022-10-09T03:58:22.400Z,27.20
2022-10-09T04:00:53.156Z,27.08
2022-10-09T04:03:22.420Z,28.48
2022-10-09T04:05:51.330Z,27.30
2022-10-09T04:08:20.322Z,27.08
2022-10-09T04:10:49.167Z,28.00
2022-10-09T04:13:23.232Z,27.42
2022-10-09T04:15:53.400Z,25.60
2022-10-09T04:18:23.414Z,26.95
2022-10-09T04:20:54.197Z,26.33
2022-10-09T04:23:25.637Z,23.33
2022-10-09T04:25:56.283Z,23.63
2022-10-09T04:28:25.791Z,24.50
2022-10-09T04:30:54.628Z,22.83
2022-10-09T04:33:24.201Z,24.92
2022-10-09T04:35:54.844Z,23.42
2022-10-09T04:38:25.285Z,22.75
2022-10-09T04:41:04.967Z,24.80
2022-10-09T04:43:34.984Z,25.80
2022-10-09T04:46:14.183Z,24.02
2022-10-09T04:48:45.397Z,24.98
2022-10-09T04:51:24.391Z,23.02
2022-10-09T04:53:56.146Z,23.20
2022-10-09T04:56:27.267Z,22.30
2022-10-09T04:58:56.144Z,23.95
2022-10-09T05:01:27.832Z,22.45
2022-10-09T05:03:57.467Z,23.20
2022-10-09T05:06:26.431Z,20.90
2022-10-09T05:08:56.069Z,20.90
2022-10-09T05:11:26.340Z,21.92
2022-10-09T05:13:57.969Z,21.35
2022-10-09T05:16:29.370Z,22.15
2022-10-09T05:19:00.502Z,22.02
2022-10-09T05:21:31.501Z,20.80
2022-10-09T05:24:10.968Z,20.95
2022-10-09T05:26:39.936Z,20.58
2022-10-09T05:29:08.763Z,19.42
2022-10-09T05:31:38.094Z,17.58
2022-10-09T05:34:07.100Z,15.50
2022-10-09T05:36:36.061Z,12.95
2022-10-09T05:39:05.139Z,10.15
2022-10-09T05:41:34.062Z,13.55
2022-10-09T05:44:04.570Z,11.93
2022-10-09T05:46:34.144Z,12.00
2022-10-09T05:49:08.084Z,13.00
2022-10-09T05:51:39.875Z,11.75
2022-10-09T05:54:14.463Z,11.63
2022-10-09T05:56:45.298Z,10.98
2022-10-09T05:59:19.990Z,10.02
2022-10-09T06:01:51.803Z,10.38
2022-10-09T06:04:23.951Z,10.02
2022-10-09T06:06:53.292Z,9.90
2022-10-09T06:09:24.257Z,9.93
2022-10-09T06:11:55.329Z,9.20
2022-10-09T06:14:25.438Z,9.52
2022-10-09T06:16:54.480Z,10.18
2022-10-09T06:19:23.578Z,9.20
2022-10-09T06:21:52.495Z,13.07
2022-10-09T06:24:28.193Z,13.27
2022-10-09T06:26:58.800Z,12.73
2022-10-09T06:29:28.001Z,12.18
2022-10-09T06:31:57.449Z,14.40
2022-10-09T06:34:26.317Z,13.38
2022-10-09T06:36:55.273Z,14.10
2022-10-09T06:39:24.388Z,14.77
2022-10-09T06:41:53.571Z,14.47
2022-10-09T06:44:32.084Z,15.20
2022-10-09T06:47:01.065Z,15.50
2022-10-09T06:49:29.973Z,14.52
2022-10-09T06:51:58.844Z,15.30
2022-10-09T06:54:27.901Z,14.35
2022-10-09T06:56:56.984Z,14.35
2022-10-09T06:59:25.796Z,15.18
2022-10-09T07:01:57.167Z,13.30
2022-10-09T07:04:26.278Z,12.68
2022-10-09T07:06:55.257Z,12.18
2022-10-09T07:09:24.197Z,9.07
2022-10-09T07:11:53.256Z,6.60
2022-10-09T07:14:22.259Z,7.10
2022-10-09T07:16:52.421Z,6.28
2022-10-09T07:19:22.186Z,6.35
2022-10-09T07:21:51.166Z,7.98
2022-10-09T07:24:20.972Z,7.20
2022-10-09T07:26:50.020Z,6.60
2022-10-09T07:29:19.847Z,7.47
2022-10-09T07:31:50.213Z,8.02
2022-10-09T07:34:19.719Z,8.65
2022-10-09T07:36:48.678Z,10.15
2022-10-09T07:39:19.740Z,12.13
2022-10-09T07:41:51.200Z,10.73
2022-10-09T07:44:20.150Z,11.90
2022-10-09T07:46:52.001Z,11.27
2022-10-09T07:49:21.193Z,11.27
2022-10-09T07:51:50.290Z,11.63
2022-10-09T07:54:19.302Z,11.50
2022-10-09T07:56:48.131Z,12.25
2022-10-09T07:59:17.571Z,12.73
2022-10-09T08:01:46.730Z,12.93
2022-10-09T08:04:15.724Z,13.45
2022-10-09T08:06:44.826Z,13.93
2022-10-09T08:09:14.879Z,13.48
2022-10-09T08:11:44.975Z,13.77
2022-10-09T08:14:19.029Z,12.00
2022-10-09T08:16:48.891Z,12.90
2022-10-09T08:19:17.812Z,12.52
2022-10-09T08:21:46.890Z,11.80
2022-10-09T08:24:26.825Z,11.60
2022-10-09T08:26:55.819Z,11.63
2022-10-09T08:29:24.698Z,10.73
2022-10-09T08:31:53.796Z,11.27
2022-10-09T08:34:32.422Z,12.82
2022-10-09T08:37:01.681Z,11.55
2022-10-09T08:39:31.512Z,12.00
2022-10-09T08:42:04.489Z,13.13
2022-10-09T08:44:43.780Z,10.05
2022-10-09T08:47:26.886Z,9.05
2022-10-09T08:50:24.306Z,7.97
2022-10-09T08:52:53.457Z,5.87
2022-10-09T08:55:30.527Z,6.90
2022-10-09T08:58:05.612Z,7.65
2022-10-09T09:04:01.860Z,9.63
2022-10-09T09:06:51.954Z,10.90
2022-10-09T09:09:49.170Z,11.90
2022-10-09T09:15:51.273Z,14.13
2022-10-09T09:18:20.252Z,15.25
2022-10-09T09:24:19.213Z,15.10
2022-10-09T09:26:53.501Z,16.52
2022-10-09T09:29:40.543Z,18.65
2022-10-09T09:32:24.161Z,22.20
2022-10-09T09:35:22.712Z,27.08
2022-10-09T09:37:54.561Z,24.45
2022-10-09T09:40:38.864Z,12.15
2022-10-09T09:43:18.227Z,10.65
2022-10-09T09:45:48.102Z,9.75
2022-10-09T09:48:32.928Z,10.02
2022-10-09T09:51:27.043Z,12.52
2022-10-09T09:54:15.980Z,16.88
2022-10-09T09:57:18.235Z,23.20
2022-10-09T09:59:47.427Z,19.75
2022-10-09T10:02:20.688Z,31.83
2022-10-09T10:05:00.051Z,32.70
2022-10-09T10:07:35.245Z,37.80
2022-10-09T10:10:24.000Z,35.08
2022-10-09T10:13:00.323Z,32.58
2022-10-09T10:15:34.350Z,31.08
2022-10-09T10:18:15.501Z,31.40
2022-10-09T10:20:56.979Z,30.58
2022-10-09T10:23:31.809Z,22.00
2022-10-09T10:26:18.328Z,24.23
2022-10-09T10:29:16.155Z,21.08
2022-10-09T10:32:06.219Z,21.75
2022-10-09T10:34:45.758Z,22.60
2022-10-09T10:37:14.922Z,20.27
2022-10-09T10:39:57.826Z,22.67
2022-10-09T10:42:48.422Z,25.30
2022-10-09T10:45:23.090Z,21.70
2022-10-09T10:47:56.651Z,25.50
2022-10-09T10:50:31.602Z,18.88
2022-10-09T10:53:48.177Z,36.45
2022-10-09T10:56:55.301Z,27.50
2022-10-09T11:00:05.684Z,18.90
2022-10-09T11:03:03.246Z,14.13
2022-10-09T11:05:55.879Z,17.67
2022-10-09T11:08:57.715Z,16.75
2022-10-09T11:11:50.252Z,19.73
2022-10-09T11:14:57.692Z,16.13
2022-10-09T11:20:52.630Z,14.82
2022-10-09T11:23:39.628Z,16.73
2022-10-09T11:26:32.989Z,18.25
2022-10-09T11:32:22.898Z,19.40
2022-10-09T11:35:03.540Z,19.67
2022-10-09T11:37:36.705Z,19.98
2022-10-09T11:40:25.426Z,19.13
2022-10-09T11:43:07.514Z,22.55
2022-10-09T11:46:01.588Z,20.70
2022-10-09T11:48:48.758Z,24.40
2022-10-09T11:51:32.252Z,27.00
2022-10-09T11:54:03.486Z,25.08
2022-10-09T11:56:33.102Z,28.90
2022-10-09T11:59:05.140Z,38.47
2022-10-09T12:01:38.003Z,33.08
2022-10-09T12:04:53.965Z,36.03
2022-10-09T12:07:36.933Z,31.05
2022-10-09T12:10:21.632Z,28.00
2022-10-09T12:13:03.422Z,32.35
2022-10-09T12:15:54.050Z,30.45
2022-10-09T12:18:31.852Z,35.00
2022-10-09T12:21:26.904Z,33.10
2022-10-09T12:23:56.356Z,37.10
2022-10-09T12:26:36.523Z,36.22
2022-10-09T12:29:05.726Z,35.38
2022-10-09T12:31:39.403Z,33.30
2022-10-09T12:34:25.406Z,35.55
2022-10-09T12:37:10.436Z,37.30
2022-10-09T12:39:39.756Z,36.75
2022-10-09T12:42:19.140Z,35.20
2022-10-09T12:44:58.343Z,32.88
2022-10-09T12:47:30.415Z,31.02
2022-10-09T12:50:31.428Z,30.65
2022-10-09T12:53:14.003Z,21.55
2022-10-09T12:55:47.676Z,23.04
2022-10-09T12:58:20.713Z,22.85
2022-10-09T13:01:02.796Z,22.63
2022-10-09T13:03:37.853Z,17.50
2022-10-09T13:06:22.944Z,17.63
2022-10-09T13:08:58.550Z,14.77
2022-10-09T13:11:41.900Z,13.98
2022-10-09T13:23:37.061Z,11.30
2022-10-09T13:26:28.945Z,9.76
2022-10-09T13:29:06.882Z,10.75
2022-10-09T13:31:50.345Z,10.35
2022-10-09T13:34:30.354Z,9.98
2022-10-09T13:37:06.736Z,9.75
2022-10-09T13:39:36.371Z,9.43
2022-10-09T13:42:06.668Z,9.02
2022-10-09T13:44:37.417Z,9.07
2022-10-09T13:47:07.055Z,9.07
2022-10-09T13:49:37.763Z,9.43
2022-10-09T13:52:14.560Z,9.05
2022-10-09T13:54:45.224Z,9.82
2022-10-09T13:57:15.631Z,9.38
2022-10-09T13:59:49.475Z,10.25
2022-10-09T14:02:34.065Z,10.18
2022-10-09T14:05:04.334Z,9.18
2022-10-09T14:07:47.513Z,9.75
2022-10-09T14:10:26.055Z,9.90
2022-10-09T14:12:55.864Z,9.88
2022-10-09T14:15:25.930Z,9.30
2022-10-09T14:17:57.716Z,9.75
2022-10-09T14:20:45.996Z,13.85
2022-10-09T14:23:19.407Z,11.68
2022-10-09T14:26:04.718Z,10.15
2022-10-09T14:28:35.105Z,10.85
2022-10-09T14:31:08.955Z,10.48
2022-10-09T14:33:42.332Z,10.20
2022-10-09T14:36:20.699Z,10.57
2022-10-09T14:38:50.269Z,9.73
2022-10-09T14:41:20.390Z,9.80
2022-10-09T14:43:56.831Z,9.23
2022-10-09T14:46:28.928Z,9.27
2022-10-09T14:49:00.475Z,8.70
2022-10-09T14:51:32.501Z,8.50
2022-10-09T14:54:06.438Z,8.20
2022-10-09T14:56:36.068Z,9.07
2022-10-09T14:59:07.718Z,8.07
2022-10-09T15:01:37.187Z,8.25
2022-10-09T15:04:10.545Z,7.55
2022-10-09T15:06:39.845Z,7.80
2022-10-09T15:09:10.917Z,7.97
2022-10-09T15:11:40.761Z,6.75
2022-10-09T15:14:10.471Z,7.00
2022-10-09T15:16:40.044Z,7.85
2022-10-09T15:19:10.449Z,6.93
2022-10-09T15:21:40.744Z,5.88
2022-10-09T15:24:14.267Z,6.50
2022-10-09T15:26:43.820Z,6.95
2022-10-09T15:29:12.925Z,7.07
2022-10-09T15:31:43.153Z,6.70
2022-10-09T15:34:18.635Z,6.32
2022-10-09T15:36:48.056Z,6.60
2022-10-09T15:39:27.377Z,5.70
2022-10-09T15:41:59.585Z,5.65
2022-10-09T15:44:29.193Z,4.90
2022-10-09T15:46:58.203Z,5.15
2022-10-09T15:49:27.155Z,4.97
2022-10-09T15:51:56.175Z,5.28
2022-10-09T15:54:30.759Z,4.85
2022-10-09T15:57:09.550Z,4.82
2022-10-09T15:59:41.730Z,4.87
2022-10-09T16:02:12.054Z,4.03
2022-10-09T16:04:41.995Z,6.95
2022-10-09T16:07:11.016Z,3.78
2022-10-09T16:09:40.156Z,3.60
2022-10-09T16:12:09.165Z,3.75
2022-10-09T16:14:48.277Z,4.30
2022-10-09T16:17:22.510Z,3.88
2022-10-09T16:19:51.713Z,3.60
2022-10-09T16:22:30.652Z,4.03
2022-10-09T16:24:59.725Z,4.15
2022-10-09T16:27:28.709Z,3.22
2022-10-09T16:29:58.314Z,3.47
2022-10-09T16:32:27.906Z,3.30
2022-10-09T16:35:10.752Z,3.35
2022-10-09T16:37:41.655Z,3.15
2022-10-09T16:40:11.446Z,3.22
2022-10-09T16:42:40.491Z,2.90
2022-10-09T16:45:10.405Z,3.47
2022-10-09T16:47:52.170Z,2.92
2022-10-09T16:50:24.484Z,2.85
2022-10-09T16:53:03.734Z,3.05
2022-10-09T16:55:36.323Z,3.13
2022-10-09T16:58:05.611Z,2.95
2022-10-09T17:00:34.818Z,3.08
2022-10-09T17:03:07.815Z,3.17
2022-10-09T17:05:40.036Z,3.10
2022-10-09T17:08:09.029Z,2.88
2022-10-09T17:10:42.911Z,4.30
2022-10-09T17:13:12.160Z,2.80
2022-10-09T17:15:42.479Z,3.28
2022-10-09T17:18:11.467Z,2.70
2022-10-09T17:20:41.126Z,2.40
2022-10-09T17:23:10.430Z,2.60
2022-10-09T17:25:41.449Z,2.85
2022-10-09T17:28:10.442Z,2.42
2022-10-09T17:30:41.176Z,2.70
2022-10-09T17:33:20.216Z,2.45
2022-10-09T17:35:59.405Z,2.42
2022-10-09T17:38:28.568Z,2.53
2022-10-09T17:40:57.502Z,2.55
2022-10-09T17:43:26.366Z,2.38
2022-10-09T17:45:55.384Z,2.60
2022-10-09T17:48:24.398Z,3.05
2022-10-09T17:50:55.349Z,2.67
2022-10-09T17:53:25.369Z,2.35
2022-10-09T17:55:56.579Z,3.00
2022-10-09T17:58:35.685Z,2.70
2022-10-09T18:01:08.871Z,2.50
2022-10-09T18:03:37.948Z,2.65
2022-10-09T18:06:14.392Z,2.70
2022-10-09T18:08:43.943Z,2.63
2022-10-09T18:11:15.730Z,3.00
2022-10-09T18:13:54.969Z,2.35
2022-10-09T18:16:35.761Z,2.40
2022-10-09T18:19:10.062Z,2.42
2022-10-09T18:21:42.059Z,2.15
2022-10-09T18:24:12.469Z,2.30
2022-10-09T18:26:42.237Z,2.22
2022-10-09T18:29:11.178Z,2.40
2022-10-09T18:31:40.073Z,1.80
2022-10-09T18:34:18.985Z,1.77
2022-10-09T18:36:48.027Z,1.98
2022-10-09T18:39:22.066Z,1.87
2022-10-09T18:41:51.050Z,1.73
2022-10-09T18:44:22.095Z,1.90
2022-10-09T18:47:02.494Z,2.05
2022-10-09T18:49:48.796Z,2.05
2022-10-09T18:54:53.392Z,2.20
2022-10-09T18:57:27.969Z,2.00
2022-10-09T19:00:08.210Z,2.00
2022-10-09T19:02:43.328Z,1.90
2022-10-09T19:05:23.399Z,1.90
2022-10-09T19:07:52.553Z,1.70
2022-10-09T19:10:21.573Z,2.05
2022-10-09T19:12:52.837Z,1.80
2022-10-09T19:15:22.762Z,2.10
2022-10-09T19:17:51.935Z,1.90
2022-10-09T19:20:29.290Z,1.80
2022-10-09T19:22:58.146Z,2.10
2022-10-09T19:25:27.552Z,2.20
2022-10-09T19:27:56.431Z,2.60
2022-10-09T19:30:25.273Z,2.47
2022-10-09T19:32:54.174Z,2.60
2022-10-09T19:35:23.065Z,2.28
2022-10-09T19:37:52.304Z,2.78
2022-10-09T19:40:21.298Z,2.42
2022-10-09T19:42:50.131Z,2.53
2022-10-09T19:45:19.057Z,2.50
2022-10-09T19:47:52.179Z,2.75
2022-10-09T19:50:22.962Z,2.50
2022-10-09T19:52:51.805Z,2.60
2022-10-09T19:55:20.801Z,2.67
2022-10-09T19:57:54.061Z,2.63
2022-10-09T20:00:29.096Z,2.65
2022-10-09T20:03:02.879Z,2.88
2022-10-09T20:05:33.147Z,2.58
2022-10-09T20:08:10.342Z,2.90
2022-10-09T20:10:39.949Z,3.03
2022-10-09T20:13:09.762Z,3.08
2022-10-09T20:15:43.824Z,3.00
2022-10-09T20:18:17.732Z,3.13
2022-10-09T20:20:51.995Z,3.00
2022-10-09T20:23:21.610Z,3.00
2022-10-09T20:26:11.535Z,2.38
2022-10-09T20:28:45.811Z,2.90
2022-10-09T20:31:21.097Z,2.72
2022-10-09T20:33:51.152Z,2.45
2022-10-09T20:36:27.171Z,2.90
2022-10-09T20:38:58.047Z,2.78
2022-10-09T20:41:29.040Z,2.50
2022-10-09T20:44:00.196Z,2.70
2022-10-09T20:46:36.115Z,2.50
2022-10-09T20:49:08.127Z,2.83
2022-10-09T20:51:38.171Z,2.70
2022-10-09T20:54:17.063Z,2.50
2022-10-09T20:56:46.668Z,2.83
2022-10-09T20:59:16.547Z,2.50
2022-10-09T21:01:45.718Z,2.60
2022-10-09T21:04:15.243Z,3.00
2022-10-09T21:06:44.165Z,2.60
2022-10-09T21:09:13.090Z,2.70
2022-10-09T21:11:42.281Z,2.72
2022-10-09T21:14:11.273Z,2.70
2022-10-09T21:16:40.484Z,3.15
2022-10-09T21:19:12.117Z,3.30
2022-10-09T21:21:50.037Z,4.07
2022-10-09T21:24:20.051Z,3.88
2022-10-09T21:26:49.012Z,4.70
2022-10-09T21:29:18.653Z,5.07
2022-10-09T21:31:47.515Z,4.88
2022-10-09T21:34:16.417Z,5.18
2022-10-09T21:37:19.810Z,5.60
2022-10-09T21:39:55.957Z,6.43
2022-10-09T21:42:24.905Z,6.63
2022-10-09T21:44:58.041Z,6.07
2022-10-09T21:47:26.937Z,6.43
2022-10-09T21:49:56.025Z,5.30
2022-10-09T21:52:24.920Z,5.55
2022-10-09T21:54:53.809Z,5.55
2022-10-09T21:57:28.387Z,5.38
2022-10-09T21:59:57.388Z,5.22
2022-10-09T22:02:31.992Z,5.05
2022-10-09T22:05:05.987Z,5.32
2022-10-09T22:07:35.221Z,5.47
2022-10-09T22:10:05.756Z,4.82
2022-10-09T22:12:35.150Z,5.32
2022-10-09T22:15:05.050Z,5.70
2022-10-09T22:17:33.958Z,6.75
2022-10-09T22:20:02.809Z,6.55
2022-10-09T22:22:32.301Z,7.15
2022-10-09T22:25:01.217Z,7.22
2022-10-09T22:27:36.953Z,7.15
2022-10-09T22:30:15.556Z,7.05
2022-10-09T22:32:49.484Z,7.67
2022-10-09T22:35:18.532Z,7.80
2022-10-09T22:37:47.563Z,7.68
2022-10-09T22:40:16.587Z,7.97
2022-10-09T22:42:45.458Z,8.30
2022-10-09T22:45:14.358Z,7.57
2022-10-09T22:47:43.131Z,8.30
2022-10-09T22:50:11.888Z,7.30
2022-10-09T22:52:40.926Z,7.38
2022-10-09T22:55:10.061Z,9.27
2022-10-09T22:57:39.486Z,6.93
2022-10-09T23:00:08.866Z,6.97
2022-10-09T23:02:37.760Z,6.00
2022-10-09T23:05:07.042Z,5.18
2022-10-09T23:07:35.857Z,5.18
2022-10-09T23:10:04.987Z,5.00
2022-10-09T23:12:33.929Z,5.13
2022-10-09T23:15:02.819Z,4.85
2022-10-09T23:17:33.121Z,4.93
2022-10-09T23:20:10.653Z,4.95
2022-10-09T23:22:39.581Z,4.50
2022-10-09T23:25:08.792Z,4.55
2022-10-09T23:27:38.856Z,4.60
2022-10-09T23:30:08.335Z,4.60
2022-10-09T23:32:37.246Z,5.25
2022-10-09T23:35:06.614Z,5.05
2022-10-09T23:37:40.566Z,5.05
2022-10-09T23:40:09.887Z,4.60
2022-10-09T23:42:39.166Z,5.00
2022-10-09T23:45:13.123Z,4.43
2022-10-09T23:47:41.930Z,5.03
2022-10-09T23:50:22.146Z,4.80
2022-10-09T23:53:01.714Z,5.00
2022-10-09T23:55:40.689Z,4.97
2022-10-09T23:58:18.446Z,5.10
